Nore, Minnesota
Current Conditions -  °F | °C
As of 2:13 AM on Monday 24 Nov 2014 (Local Time) from KFOZ Reporting Station
Unknown Precip Unknown Precip  
Wind Chill: 17°   Ceiling: 300
Heat Index: 27°   Visibility: 7mi
Dew Point: 25°   Wind: 9mph
Humidity: 93%   Direction: 290°WNW
Pressure: 29.35"   Gusts: NA
Location:  47.8312°N, 94.1459°W
Report Text: KFOZ 240813Z AUTO 29008KT 263V323 7SM UP OVC003 M03/M04 A2935 RMK AO2
Loading
Personal Weather Stations






























Interactive Weather Map New forecast layout! Learn more

10-Day Weather Forecast

Advertisements
Track Severe Weather on mobile